Tomasz Buksa

Recruteur en chef - Cracovia
4 Déc 2028
Lundi
Processus

Personnalité

Adaptabilité (3) Ambition (1) Controverse (5) Loyauté (2) Pression (10) Professionnalisme (8) Sportivité (18) Tempérament (4)

Profil

Style d'entraînement Démocratique
Diplôme Continental A
Détermination 9
Gestion des joueurs 9
Motivation 12
Discipline 9
Satisfaction professionnelle
70%
Fatigue
0%
Rôle Recruteur en chef
Salaire 13.7K p/s
Contrat 14.03.2029

Performance

Comportement Bon
Efficacité de l'entraînement
22%
Développement des joueurs
50%
Prévention des blessures
40%
Mise en place tactique
25%

Événements récents

A participé à une réunion de recrutement maintenant
A participé à une réunion de recrutement maintenant
A recommandé une cible de transfert maintenant
A participé à une réunion de recrutement 7j
A participé à une réunion de recrutement 7j
A recommandé une cible de transfert 7j
A recommandé une cible de transfert 7j
A recommandé une cible de transfert 7j

Suivi en cours

149
Joueur Club Statut Capacité Confiance Observé Dernière observation Dernier vote
Yegor Matsenko Slask Rapport prêt 108 / 113 69% 1 07.08.2028 -
Augusto Bando Ascoli Négociation 122 / 114 40% 3 20.06.2028 -
Musa Danjuma Umraniyespor Actif 89 / 109 40% 3 20.06.2028 -
Tobías Ramírez River Plate Actif 124 / 137 40% 1 20.06.2028 -
Igor Drapiński Piast Actif 103 / 119 65% 1 19.06.2028 Approuver
Kiani Inge Groningen Actif 114 / 129 40% 3 12.06.2028 -
Yhormar Hurtado Lechia Perdu 120 / 124 65% 1 12.06.2028 -
Ayden Heaven Portsmouth Actif 150 / 150 40% 4 03.06.2028 -
Alphadjo Cissé Lecce Actif 127 / 136 40% 2 31.05.2028 -
Kerim Alajbegović Modena Actif 128 / 133 40% 1 31.05.2028 -
Louis Zecevic-John Colchester United Actif 94 / 112 40% 1 31.05.2028 -
Martim Cunha Porto Actif 97 / 105 40% 5 26.05.2028 -
Honest Ahanor Atalanta Actif 147 / 146 40% 5 25.05.2028 -
Riquelme Thompson-Jones Accrington Stanley Actif 116 / 117 40% 3 25.05.2028 -
Miguel Figueiredo Benfica Actif 124 / 134 40% 1 25.05.2028 -
Jorthy Mokio ADO Den Haag Actif 131 / 130 40% 6 24.05.2028 -
Kwesi Sorotu Badori Berekum Chelsea Actif 104 / 105 40% 1 24.05.2028 -
Olivier Leroux Mouscron Actif 106 / 98 40% 1 23.05.2028 -
Andrea Cogoni Cosenza Actif 114 / 117 40% 1 22.05.2028 -
Josh Nichols Oldham Athletic Actif 109 / 129 40% 5 20.05.2028 -
Christos Mouzakitis Hull City Actif 128 / 132 40% 4 20.05.2028 -
Jan Bürger Northampton Town Actif 110 / 134 40% 7 16.05.2028 -
Nicolò Moranduzzo Renate Actif 96 / 91 40% 3 16.05.2028 -
Bernardo Lima Porto Actif 99 / 122 40% 2 15.05.2028 -
Abubakar Adams Aduana Stars Actif 93 / 87 40% 2 15.05.2028 -
Giovanni Leoni Lincoln City Actif 140 / 148 40% 1 12.05.2028 -
Lucas Høgsberg RC Strasbourg Actif 139 / 136 40% 3 09.05.2028 -
Thijs Kraaijeveld USM Alger Actif 133 / 133 40% 1 09.05.2028 -
Trey Nyoni Rotherham United Actif 139 / 154 40% 4 05.05.2028 -
Andrey Ivlev Nizhniy Novgorod Actif 110 / 115 40% 1 05.05.2028 -
Simone Suppa Virtus Verona Actif 77 / 84 40% 1 03.05.2028 -
Dmytro Strilchuk Podillia Actif 96 / 98 40% 2 14.04.2028 -
Daniel Banjaqui Benfica Actif 121 / 124 40% 4 06.04.2028 -
Andrija Bulatović Chamois Niortais Actif 126 / 129 40% 1 06.04.2028 -
Tyler Fletcher Rotherham United Actif 119 / 114 40% 2 05.04.2028 -
Khama Mabunda Platinum Stars Actif 87 / 86 40% 1 02.04.2028 -
Melvin Vučenović Persson Atvidaberg Actif 77 / 90 40% 2 01.04.2028 -
Amine Boukamir Charleroi Actif 112 / 99 40% 2 26.03.2028 -
Matvey Bardachev Zenit Actif 106 / 112 40% 1 23.03.2028 -
Josh Acheampong Everton Actif 128 / 151 40% 5 14.03.2028 -
Konta Ismaily Actif 109 / 117 40% 1 08.03.2028 -
Lucas Camejo River Plate Actif 91 / 84 40% 7 07.02.2028 -
Esquerdinha Notts County Actif 121 / 118 40% 2 07.02.2028 -
Jeremías Merlo Gimnasia La Plata Actif 129 / 120 40% 1 05.01.2028 -
Christ Wawa Gefle Actif 108 / 94 40% 1 05.01.2028 -
Victor Hernandez Santa Fe Actif 121 / 118 40% 5 04.01.2028 -
Matias Siltanen Malmo FF Actif 129 / 136 40% 4 01.01.2028 -
Hosea Michael Remo Stars Actif 79 / 90 40% 1 05.12.2027 -
Tiago Gordillo San Miguel Actif 89 / 95 40% 2 04.12.2027 -
Juan Camilo Córdoba Deportivo Pereira Actif 91 / 91 40% 4 03.12.2027 -
Zane Albarus Shrewsbury Town Actif 101 / 107 40% 5 02.12.2027 -
Óscar Hinojosa Metropolitanos Actif 91 / 88 40% 3 28.11.2027 -
Nazareno Roselli Defensa y Justicia Actif 120 / 117 40% 2 27.11.2027 -
Joel Ezra Enyimba Actif 80 / 102 40% 5 26.11.2027 -
Colin Guske Orlando City Actif 94 / 100 40% 2 26.11.2027 -
Francisco Machis Llaneros Actif 77 / 92 40% 3 24.11.2027 -
Ivan Borges Defensores Actif 80 / 89 40% 2 24.11.2027 -
Daniel Idoko Ikorodu City Actif 107 / 97 40% 2 23.11.2027 -
Oscar Steinke Brånby Hammarby Actif 87 / 114 40% 3 21.11.2027 -
Edvard Pettersen Sandefjord Actif 123 / 127 40% 2 20.11.2027 -
Gideon Manaseh Ikorodu City Actif 82 / 89 40% 3 05.11.2027 -
Caleb Yirenkyi Coventry City Actif 130 / 137 40% 2 01.11.2027 -
Mohamed Moussa Koïta Mathare United Actif 111 / 105 40% 1 22.10.2027 -
Onyeuche Ujunwa Ikorodu City Actif 88 / 82 40% 3 20.10.2027 -
Ignacio Fernández Boston River Actif 96 / 105 40% 2 13.10.2027 -
Mpho Khethang FC Diarra Actif 84 / 96 40% 1 12.09.2027 -
Eliás Montiel Borussia Dortmund Actif 125 / 130 40% 1 09.09.2027 -
Juan Diego Perdomo Depor Actif 96 / 92 40% 1 08.09.2027 -
Matías Canedo Rampla Juniors Actif 77 / 90 40% 1 06.09.2027 -
Pedro Vian Seewald Dolomiti Bellunesi Actif 97 / 99 40% 1 18.08.2027 -
Gabriele Bertolini Vicenza Actif 100 / 99 40% 3 14.06.2027 -
Romelle Donovan Brentford Actif 129 / 129 40% 3 14.06.2027 -
Johannes Eggestein Orlando City Actif 125 / 125 68% 1 01.06.2027 Approuver
Oleh Ocheretko FC Dallas Actif 129 / 131 67% 1 01.06.2027 Approuver
Mariusz Stępiński Korona Perdu 112 / 117 58% 1 01.06.2027 -
Elijah Adebayo Luton Town Actif 129 / 120 40% 1 31.05.2027 -
Ryan Oné Sheffield United Actif 112 / 125 40% 1 29.05.2027 -
Mateus Mané Burnley Actif 130 / 137 40% 2 27.05.2027 -
Mattia Rutigliano Pro Vercelli Actif 113 / 93 40% 1 27.05.2027 -
Daniel Awuni Aduana Stars Actif 89 / 100 40% 3 25.05.2027 -
Riley Owen Stevenage Actif 115 / 97 40% 2 25.05.2027 -
Ethan Williams Peterborough United Actif 120 / 122 40% 5 23.05.2027 -
Tiago Freitas Benfica Actif 110 / 125 40% 1 20.05.2027 -
Eduardo Fernandes Benfica Actif 105 / 105 40% 4 19.05.2027 -
Tommaso Cecotti Carpi Actif 83 / 89 40% 1 19.05.2027 -
Víctor Guzmán Sporting CP Actif 102 / 97 40% 2 15.05.2027 -
Lander Astiazarán Real Sociedad Actif 109 / 125 40% 3 12.05.2027 -
Lucas Ferreira Shakhtar Actif 128 / 131 40% 1 11.05.2027 -
Gladson Adjei WAFA Actif 76 / 96 40% 4 10.05.2027 -
Mohamadou Kanté Crawley Town Actif 124 / 136 40% 2 10.05.2027 -
Sascha Britschgi AC Milan Actif 116 / 122 40% 1 09.05.2027 -
Calum Agius Crewe Alexandra Actif 110 / 95 40% 2 06.05.2027 -
Othmane Maamma Watford Actif 126 / 141 40% 2 03.05.2027 -
Gomolemo Kekana Maritzburg United Actif 92 / 119 40% 2 02.05.2027 -
Kirill Glebov CSKA Moscow Actif 127 / 126 40% 2 01.05.2027 -
Nestory Irankunda Watford Actif 119 / 115 40% 3 29.04.2027 -
Luke Baartman Ajax Cape Town Actif 91 / 123 40% 1 24.04.2027 -
Araphat Mohammed Ashanti Gold Actif 103 / 111 40% 1 22.04.2027 -
Ishmael Addo Heart of Lions Actif 102 / 88 40% 1 19.04.2027 -
Nana Nuhu WAFA Actif 74 / 103 40% 1 13.04.2027 -
Rocco Vata Watford Actif 137 / 132 40% 1 10.04.2027 -
Leo Castledine Middlesbrough Actif 141 / 119 40% 1 10.04.2027 -
Ammar Ramadan DAC Dunajska Streda Actif 129 / 114 40% 2 30.12.2026 -
Aune Heggebø West Bromwich Albion Actif 137 / 122 40% 1 29.12.2026 -
Max Johnston Derby County Actif 114 / 126 40% 1 27.12.2026 -
Cameron Archer Southampton Actif 117 / 117 40% 2 23.12.2026 -
Sorba Thomas Stoke City Actif 133 / 133 40% 1 22.12.2026 -
Bohdan Viunnyk Lechia Actif 105 / 104 40% 3 19.12.2026 -
Mihael Mlinarić Zaglebie Actif 123 / 116 40% 1 16.12.2026 -
Brayan Gil Baltika Actif 112 / 122 40% 1 14.12.2026 -
Manfred Ugalde Spartak Moscow Actif 121 / 140 40% 1 13.12.2026 -
Yorbe Vertessen Red Bull Salzburg Actif 114 / 116 40% 2 10.12.2026 -
Mustapha Sangaré Levski Actif 116 / 124 40% 1 09.12.2026 -
Armstrong Oko-Flex Levski Actif 119 / 128 40% 1 05.12.2026 -
Vladislav Blănuţă Lechia Actif 103 / 117 40% 6 04.12.2026 -
Zach Ryan Ismaily Actif 89 / 83 40% 1 04.12.2026 -
Luis Palma Lech Actif 130 / 132 40% 7 03.12.2026 -
Talles Magno New York City Actif 126 / 137 40% 3 02.12.2026 -
Peter Itodo Metalist Actif 118 / 108 40% 1 29.11.2026 -
Will Swan Bradford City Actif 90 / 116 40% 1 27.11.2026 -
Bénie Traoré New York City Actif 134 / 115 40% 1 27.11.2026 -
Hugo Vallejo Piast Actif 106 / 102 40% 3 26.11.2026 -
Matthias Seidl Rapid Wien Actif 137 / 127 40% 1 24.11.2026 -
Jesus Ferreira Seattle Sounders Actif 134 / 129 40% 2 22.11.2026 -
Isaac Matondo Koper Actif 103 / 111 40% 1 21.11.2026 -
Etiosa Ighodaro Kaizer Chiefs Actif 122 / 120 40% 1 20.11.2026 -
Erik Botheim Viking Actif 133 / 113 40% 3 18.11.2026 -
Suleiman Camara Slovan Bratislava Actif 118 / 118 40% 1 16.11.2026 -
Petter Nosa Dahl Rapid Wien Actif 138 / 128 40% 1 14.11.2026 -
Victor Olatunji Real Salt Lake Actif 122 / 121 40% 2 13.11.2026 -
Rajmund Molnár Pogon Actif 103 / 112 40% 1 12.11.2026 -
Dejan Joveljić Seattle Sounders Actif 122 / 124 40% 2 10.11.2026 -
Sota Kitano Red Bull Salzburg Actif 119 / 132 40% 2 05.11.2026 Plus d'infos
Daniel Karlsbakk Sarpsborg 08 Actif 141 / 121 40% 1 05.11.2026 -
Germán Berterame Inter Miami CF Actif 134 / 135 40% 1 30.10.2026 -
Wessam Abou Ali Columbus Crew Actif 123 / 122 40% 1 30.10.2026 -
Tio Cipot NK Maribor Actif 111 / 117 40% 1 23.10.2026 -
Alexander Aravena Portland Timbers Actif 115 / 117 40% 2 19.10.2026 -
Kévin Denkey FC Cincinnati Actif 127 / 134 40% 1 10.10.2026 -
Kelvin Yeboah Minnesota United FC Actif 137 / 120 40% 1 07.10.2026 -
Cheikh Sabaly Vancouver Whitecaps Actif 123 / 133 40% 1 05.10.2026 -
Abubakar Garba Nasarawa United Actif 99 / 92 40% 1 31.08.2026 -
Hassan Beja AFC Leopards Actif 66 / 95 40% 1 31.08.2026 -
Chineme Chinonso Ikorodu City Actif 74 / 107 40% 1 23.08.2026 -
Ajay Matthews Millwall Actif 86 / 102 40% 1 23.08.2026 -
Jorge Yriarte Slask Actif 113 / 112 58% 1 17.08.2026 -
Tosin Olawale El-Kanemi Warriors Actif 78 / 89 40% 1 16.08.2026 -
Sergio Carrasco Cobresal Actif 76 / 89 40% 1 02.08.2026 -
Senny Mayulu Paris Saint-Germain Actif 129 / 128 40% 1 01.08.2026 -